createdAt,value
2018-12-21T00:00:15.685Z,2.70
2018-12-21T00:02:44.589Z,3.00
2018-12-21T00:05:12.800Z,2.97
2018-12-21T00:07:40.979Z,3.07
2018-12-21T00:10:09.136Z,3.00
2018-12-21T00:12:37.379Z,3.37
2018-12-21T00:15:05.735Z,3.33
2018-12-21T00:17:34.741Z,3.13
2018-12-21T00:20:03.329Z,3.20
2018-12-21T00:22:31.592Z,3.27
2018-12-21T00:24:59.693Z,3.53
2018-12-21T00:27:27.839Z,3.67
2018-12-21T00:29:56.032Z,3.40
2018-12-21T00:32:29.612Z,3.43
2018-12-21T00:35:03.288Z,3.73
2018-12-21T00:37:36.863Z,3.30
2018-12-21T00:40:10.640Z,3.20
2018-12-21T00:42:44.936Z,3.87
2018-12-21T00:45:17.864Z,3.47
2018-12-21T00:47:45.971Z,3.50
2018-12-21T00:50:14.081Z,3.80
2018-12-21T00:52:42.267Z,3.07
2018-12-21T00:55:10.394Z,3.00
2018-12-21T00:57:38.543Z,3.70
2018-12-21T01:00:07.380Z,3.47
2018-12-21T01:02:35.507Z,3.33
2018-12-21T01:05:03.725Z,3.10
2018-12-21T01:07:31.944Z,3.00
2018-12-21T01:10:00.090Z,3.73
2018-12-21T01:12:28.313Z,3.40
2018-12-21T01:14:56.413Z,3.57
2018-12-21T01:17:24.594Z,3.20
2018-12-21T01:19:52.769Z,3.40
2018-12-21T01:22:20.889Z,3.50
2018-12-21T01:24:49.059Z,2.80
2018-12-21T01:27:17.184Z,2.80
2018-12-21T01:29:45.405Z,3.77
2018-12-21T01:32:13.513Z,3.37
2018-12-21T01:34:41.658Z,2.93
2018-12-21T01:37:09.816Z,3.20
2018-12-21T01:39:37.949Z,3.40
2018-12-21T01:42:06.069Z,3.30
2018-12-21T01:44:34.175Z,2.67
2018-12-21T01:47:02.295Z,3.03
2018-12-21T01:49:30.397Z,2.70
2018-12-21T01:51:58.493Z,2.77
2018-12-21T01:54:26.627Z,3.20
2018-12-21T01:56:54.719Z,3.00
2018-12-21T01:59:22.835Z,2.57
2018-12-21T02:01:50.963Z,2.97
2018-12-21T02:04:19.059Z,2.53
2018-12-21T02:06:47.180Z,2.73
2018-12-21T02:09:15.333Z,2.50
2018-12-21T02:11:43.495Z,3.00
2018-12-21T02:14:11.638Z,2.40
2018-12-21T02:16:39.823Z,2.67
2018-12-21T02:19:07.933Z,3.20
2018-12-21T02:21:36.079Z,3.10
2018-12-21T02:24:04.321Z,2.83
2018-12-21T02:26:32.556Z,2.77
2018-12-21T02:29:00.785Z,2.67
2018-12-21T02:31:29.072Z,3.03
2018-12-21T02:33:57.203Z,3.07
2018-12-21T02:36:25.299Z,2.87
2018-12-21T02:38:53.436Z,2.60
2018-12-21T02:41:21.568Z,2.83
2018-12-21T02:43:49.677Z,2.60
2018-12-21T02:46:17.790Z,2.60
2018-12-21T02:48:45.930Z,3.00
2018-12-21T02:51:14.095Z,2.90
2018-12-21T02:53:42.209Z,2.90
2018-12-21T02:56:10.322Z,2.60
2018-12-21T02:58:38.426Z,2.80
2018-12-21T03:01:06.517Z,2.40
2018-12-21T03:03:34.610Z,3.10
2018-12-21T03:06:02.772Z,2.37
2018-12-21T03:08:30.900Z,2.63
2018-12-21T03:10:59.036Z,2.57
2018-12-21T03:13:27.181Z,2.40
2018-12-21T03:15:55.294Z,2.40
2018-12-21T03:18:23.440Z,2.43
2018-12-21T03:20:51.606Z,2.87
2018-12-21T03:23:19.684Z,2.40
2018-12-21T03:25:47.764Z,2.30
2018-12-21T03:28:15.903Z,2.57
2018-12-21T03:30:44.088Z,2.40
2018-12-21T03:33:12.286Z,2.80
2018-12-21T03:35:40.417Z,2.40
2018-12-21T03:38:08.536Z,2.70
2018-12-21T03:40:36.670Z,2.60
2018-12-21T03:43:04.808Z,2.60
2018-12-21T03:45:32.923Z,2.87
2018-12-21T03:48:01.048Z,2.83
2018-12-21T03:50:29.156Z,2.23
2018-12-21T03:52:57.233Z,2.57
2018-12-21T03:55:25.371Z,2.47
2018-12-21T03:57:53.484Z,2.50
2018-12-21T04:00:21.625Z,2.70
2018-12-21T04:02:49.772Z,2.77
2018-12-21T04:05:17.867Z,2.30
2018-12-21T04:07:45.958Z,2.43
2018-12-21T04:10:14.061Z,2.10
2018-12-21T04:12:42.192Z,2.20
2018-12-21T04:15:10.408Z,2.50
2018-12-21T04:17:38.554Z,2.57
2018-12-21T04:20:06.651Z,2.50
2018-12-21T04:22:34.944Z,2.37
2018-12-21T04:25:03.226Z,2.43
2018-12-21T04:27:31.336Z,2.30
2018-12-21T04:29:59.498Z,2.50
2018-12-21T04:32:27.628Z,2.30
2018-12-21T04:34:55.835Z,2.70
2018-12-21T04:37:24.171Z,2.40
2018-12-21T04:39:52.430Z,2.57
2018-12-21T04:42:20.568Z,2.40
2018-12-21T04:44:48.664Z,2.20
2018-12-21T04:47:16.821Z,2.60
2018-12-21T04:49:45.009Z,2.50
2018-12-21T04:52:13.112Z,2.83
2018-12-21T04:54:41.185Z,2.30
2018-12-21T04:57:09.382Z,2.40
2018-12-21T04:59:37.630Z,2.30
2018-12-21T05:02:05.850Z,2.03
2018-12-21T05:04:34.034Z,2.10
2018-12-21T05:07:02.194Z,2.23
2018-12-21T05:09:30.357Z,2.63
2018-12-21T05:11:58.473Z,2.60
2018-12-21T05:14:26.648Z,2.30
2018-12-21T05:16:54.833Z,2.20
2018-12-21T05:19:24.103Z,2.30
2018-12-21T05:21:52.309Z,2.00
2018-12-21T05:24:20.442Z,2.27
2018-12-21T05:26:48.690Z,2.00
2018-12-21T05:29:16.838Z,2.93
2018-12-21T05:31:45.004Z,2.63
2018-12-21T05:34:13.155Z,2.77
2018-12-21T05:36:41.330Z,2.40
2018-12-21T05:39:09.498Z,2.10
2018-12-21T05:41:37.861Z,2.40
2018-12-21T05:44:05.990Z,2.37
2018-12-21T05:46:34.259Z,2.00
2018-12-21T05:49:02.413Z,2.17
2018-12-21T05:51:30.559Z,1.80
2018-12-21T05:53:58.715Z,2.00
2018-12-21T05:56:26.880Z,2.13
2018-12-21T05:58:55.004Z,2.00
2018-12-21T06:01:23.196Z,2.27
2018-12-21T06:03:51.323Z,2.37
2018-12-21T06:06:19.543Z,2.40
2018-12-21T06:08:47.729Z,2.20
2018-12-21T06:11:15.895Z,2.40
2018-12-21T06:13:44.010Z,2.47
2018-12-21T06:16:12.312Z,2.37
2018-12-21T06:18:40.502Z,2.20
2018-12-21T06:21:08.636Z,2.17
2018-12-21T06:23:36.805Z,2.27
2018-12-21T06:26:04.938Z,2.17
2018-12-21T06:28:33.099Z,2.37
2018-12-21T06:31:01.286Z,2.43
2018-12-21T06:33:29.480Z,2.30
2018-12-21T06:35:57.699Z,2.70
2018-12-21T06:38:25.900Z,2.27
2018-12-21T06:40:54.100Z,2.30
2018-12-21T06:43:22.277Z,2.10
2018-12-21T06:45:50.787Z,2.30
2018-12-21T06:48:18.930Z,2.17
2018-12-21T06:50:47.065Z,2.50
2018-12-21T06:53:18.100Z,2.20
2018-12-21T06:55:45.329Z,2.15
2018-12-21T06:58:13.604Z,2.30
2018-12-21T07:00:41.744Z,2.40
2018-12-21T07:03:16.883Z,2.20
2018-12-21T07:05:40.254Z,2.43
2018-12-21T07:08:08.370Z,2.73
2018-12-21T07:10:36.500Z,2.80
2018-12-21T07:13:10.304Z,2.83
2018-12-21T07:15:38.563Z,3.10
2018-12-21T07:18:06.898Z,2.60
2018-12-21T07:20:35.582Z,2.57
